sensor_id;sensor_type;location;lat;lon;timestamp;temperature;humidity
9907;DHT22;4992;51.628;6.664;2022-10-16T00:00:57;13.00;99.90
9907;DHT22;4992;51.628;6.664;2022-10-16T00:03:23;13.10;99.90
9907;DHT22;4992;51.628;6.664;2022-10-16T00:05:48;13.10;99.90
9907;DHT22;4992;51.628;6.664;2022-10-16T00:08:14;13.10;99.90
9907;DHT22;4992;51.628;6.664;2022-10-16T00:10:40;13.10;99.90
9907;DHT22;4992;51.628;6.664;2022-10-16T00:13:06;13.00;99.90
9907;DHT22;4992;51.628;6.664;2022-10-16T00:15:38;13.00;99.90
9907;DHT22;4992;51.628;6.664;2022-10-16T00:18:04;13.00;99.90
9907;DHT22;4992;51.628;6.664;2022-10-16T00:20:30;13.00;99.90
9907;DHT22;4992;51.628;6.664;2022-10-16T00:22:59;12.90;99.90
9907;DHT22;4992;51.628;6.664;2022-10-16T00:25:24;12.90;99.90
9907;DHT22;4992;51.628;6.664;2022-10-16T00:27:50;12.90;99.90
9907;DHT22;4992;51.628;6.664;2022-10-16T00:30:15;12.90;99.90
9907;DHT22;4992;51.628;6.664;2022-10-16T00:32:41;12.90;99.90
9907;DHT22;4992;51.628;6.664;2022-10-16T00:35:06;12.90;99.90
9907;DHT22;4992;51.628;6.664;2022-10-16T00:37:32;12.90;99.90
9907;DHT22;4992;51.628;6.664;2022-10-16T00:39:58;12.90;99.90
9907;DHT22;4992;51.628;6.664;2022-10-16T00:42:23;12.90;99.90
9907;DHT22;4992;51.628;6.664;2022-10-16T00:44:54;12.90;99.90
9907;DHT22;4992;51.628;6.664;2022-10-16T00:47:37;12.90;99.90
9907;DHT22;4992;51.628;6.664;2022-10-16T00:52:37;12.90;99.90
9907;DHT22;4992;51.628;6.664;2022-10-16T00:55:05;12.90;99.90
9907;DHT22;4992;51.628;6.664;2022-10-16T00:57:31;12.80;99.90
9907;DHT22;4992;51.628;6.664;2022-10-16T00:59:57;12.80;99.90
9907;DHT22;4992;51.628;6.664;2022-10-16T01:02:22;12.80;99.90
9907;DHT22;4992;51.628;6.664;2022-10-16T01:04:51;12.80;99.90
9907;DHT22;4992;51.628;6.664;2022-10-16T01:07:25;12.80;99.90
9907;DHT22;4992;51.628;6.664;2022-10-16T01:09:56;12.80;99.90
9907;DHT22;4992;51.628;6.664;2022-10-16T01:12:42;12.80;99.90
9907;DHT22;4992;51.628;6.664;2022-10-16T01:15:25;12.80;99.90
9907;DHT22;4992;51.628;6.664;2022-10-16T01:17:58;12.70;99.90
9907;DHT22;4992;51.628;6.664;2022-10-16T01:28:15;12.70;99.90
9907;DHT22;4992;51.628;6.664;2022-10-16T01:30:43;12.70;99.90
9907;DHT22;4992;51.628;6.664;2022-10-16T01:33:16;12.70;99.90
9907;DHT22;4992;51.628;6.664;2022-10-16T01:36:08;12.60;99.90
9907;DHT22;4992;51.628;6.664;2022-10-16T01:38:37;12.60;99.90
9907;DHT22;4992;51.628;6.664;2022-10-16T01:41:12;12.60;99.90
9907;DHT22;4992;51.628;6.664;2022-10-16T01:43:49;12.60;99.90
9907;DHT22;4992;51.628;6.664;2022-10-16T01:46:18;12.70;99.90
9907;DHT22;4992;51.628;6.664;2022-10-16T01:48:46;12.60;99.90
9907;DHT22;4992;51.628;6.664;2022-10-16T01:51:15;12.60;99.90
9907;DHT22;4992;51.628;6.664;2022-10-16T01:53:42;12.60;99.90
9907;DHT22;4992;51.628;6.664;2022-10-16T01:56:10;12.60;99.90
9907;DHT22;4992;51.628;6.664;2022-10-16T01:58:43;12.70;99.90
9907;DHT22;4992;51.628;6.664;2022-10-16T02:01:11;12.70;99.90
9907;DHT22;4992;51.628;6.664;2022-10-16T02:03:40;12.60;99.90
9907;DHT22;4992;51.628;6.664;2022-10-16T02:06:08;12.60;99.90
9907;DHT22;4992;51.628;6.664;2022-10-16T02:08:34;12.60;99.90
9907;DHT22;4992;51.628;6.664;2022-10-16T02:11:01;12.60;99.90
9907;DHT22;4992;51.628;6.664;2022-10-16T02:13:40;12.60;99.90
9907;DHT22;4992;51.628;6.664;2022-10-16T02:16:08;12.60;99.90
9907;DHT22;4992;51.628;6.664;2022-10-16T02:18:35;12.60;99.90
9907;DHT22;4992;51.628;6.664;2022-10-16T02:21:22;12.60;99.90
9907;DHT22;4992;51.628;6.664;2022-10-16T02:24:03;12.60;99.90
9907;DHT22;4992;51.628;6.664;2022-10-16T02:26:43;12.60;99.90
9907;DHT22;4992;51.628;6.664;2022-10-16T02:29:13;12.60;99.90
9907;DHT22;4992;51.628;6.664;2022-10-16T02:31:43;12.60;99.90
9907;DHT22;4992;51.628;6.664;2022-10-16T02:34:11;12.60;99.90
9907;DHT22;4992;51.628;6.664;2022-10-16T02:36:38;12.60;99.90
9907;DHT22;4992;51.628;6.664;2022-10-16T02:39:05;12.60;99.90
9907;DHT22;4992;51.628;6.664;2022-10-16T02:41:31;12.50;99.90
9907;DHT22;4992;51.628;6.664;2022-10-16T02:43:57;12.50;99.90
9907;DHT22;4992;51.628;6.664;2022-10-16T02:46:23;12.40;99.90
9907;DHT22;4992;51.628;6.664;2022-10-16T02:48:48;12.40;99.90
9907;DHT22;4992;51.628;6.664;2022-10-16T02:51:14;12.40;99.90
9907;DHT22;4992;51.628;6.664;2022-10-16T02:53:39;12.30;99.90
9907;DHT22;4992;51.628;6.664;2022-10-16T02:56:05;12.30;99.90
9907;DHT22;4992;51.628;6.664;2022-10-16T02:58:31;12.30;99.90
9907;DHT22;4992;51.628;6.664;2022-10-16T03:00:56;12.30;99.90
9907;DHT22;4992;51.628;6.664;2022-10-16T03:03:22;12.30;99.90
9907;DHT22;4992;51.628;6.664;2022-10-16T03:05:47;12.30;99.90
9907;DHT22;4992;51.628;6.664;2022-10-16T03:08:13;12.30;99.90
9907;DHT22;4992;51.628;6.664;2022-10-16T03:10:39;12.30;99.90
9907;DHT22;4992;51.628;6.664;2022-10-16T03:13:04;12.30;99.90
9907;DHT22;4992;51.628;6.664;2022-10-16T03:15:30;12.30;99.90
9907;DHT22;4992;51.628;6.664;2022-10-16T03:17:58;12.30;99.90
9907;DHT22;4992;51.628;6.664;2022-10-16T03:20:24;12.30;99.90
9907;DHT22;4992;51.628;6.664;2022-10-16T03:22:50;12.40;99.90
9907;DHT22;4992;51.628;6.664;2022-10-16T03:25:16;12.40;99.90
9907;DHT22;4992;51.628;6.664;2022-10-16T03:27:41;12.40;99.90
9907;DHT22;4992;51.628;6.664;2022-10-16T03:30:07;12.40;99.90
9907;DHT22;4992;51.628;6.664;2022-10-16T03:32:33;12.40;99.90
9907;DHT22;4992;51.628;6.664;2022-10-16T03:34:58;12.40;99.90
9907;DHT22;4992;51.628;6.664;2022-10-16T03:37:24;12.40;99.90
9907;DHT22;4992;51.628;6.664;2022-10-16T03:39:49;12.40;99.90
9907;DHT22;4992;51.628;6.664;2022-10-16T03:42:15;12.40;99.90
9907;DHT22;4992;51.628;6.664;2022-10-16T03:44:40;12.40;99.90
9907;DHT22;4992;51.628;6.664;2022-10-16T03:47:06;12.40;99.90
9907;DHT22;4992;51.628;6.664;2022-10-16T03:49:31;12.40;99.90
9907;DHT22;4992;51.628;6.664;2022-10-16T03:51:57;12.40;99.90
9907;DHT22;4992;51.628;6.664;2022-10-16T03:54:22;12.40;99.90
9907;DHT22;4992;51.628;6.664;2022-10-16T03:56:48;12.40;99.90
9907;DHT22;4992;51.628;6.664;2022-10-16T03:59:14;12.50;99.90
9907;DHT22;4992;51.628;6.664;2022-10-16T04:01:39;12.50;99.90
9907;DHT22;4992;51.628;6.664;2022-10-16T04:04:05;12.60;99.90
9907;DHT22;4992;51.628;6.664;2022-10-16T04:06:31;12.70;99.90
9907;DHT22;4992;51.628;6.664;2022-10-16T04:08:56;12.80;99.90
9907;DHT22;4992;51.628;6.664;2022-10-16T04:11:22;12.80;99.90
9907;DHT22;4992;51.628;6.664;2022-10-16T04:13:48;12.80;99.90
9907;DHT22;4992;51.628;6.664;2022-10-16T04:16:13;12.90;99.90
9907;DHT22;4992;51.628;6.664;2022-10-16T04:18:39;12.80;99.90
9907;DHT22;4992;51.628;6.664;2022-10-16T04:21:05;12.90;99.90
9907;DHT22;4992;51.628;6.664;2022-10-16T04:23:31;12.90;99.90
9907;DHT22;4992;51.628;6.664;2022-10-16T04:25:57;13.00;99.90
9907;DHT22;4992;51.628;6.664;2022-10-16T04:28:23;13.00;99.90
9907;DHT22;4992;51.628;6.664;2022-10-16T04:30:48;13.00;99.90
9907;DHT22;4992;51.628;6.664;2022-10-16T04:33:14;13.00;99.90
9907;DHT22;4992;51.628;6.664;2022-10-16T04:35:39;13.00;99.90
9907;DHT22;4992;51.628;6.664;2022-10-16T04:38:05;13.10;99.90
9907;DHT22;4992;51.628;6.664;2022-10-16T04:40:30;13.00;99.90
9907;DHT22;4992;51.628;6.664;2022-10-16T04:43:04;13.00;99.90
9907;DHT22;4992;51.628;6.664;2022-10-16T04:45:30;13.00;99.90
9907;DHT22;4992;51.628;6.664;2022-10-16T04:47:59;13.00;99.90
9907;DHT22;4992;51.628;6.664;2022-10-16T04:50:25;13.00;99.90
9907;DHT22;4992;51.628;6.664;2022-10-16T04:52:50;13.00;99.90
9907;DHT22;4992;51.628;6.664;2022-10-16T04:55:16;13.00;99.90
9907;DHT22;4992;51.628;6.664;2022-10-16T04:57:41;13.00;99.90
9907;DHT22;4992;51.628;6.664;2022-10-16T05:00:07;13.00;99.90
9907;DHT22;4992;51.628;6.664;2022-10-16T05:02:33;13.00;99.90
9907;DHT22;4992;51.628;6.664;2022-10-16T05:04:59;13.00;99.90
9907;DHT22;4992;51.628;6.664;2022-10-16T05:07:25;13.00;99.90
9907;DHT22;4992;51.628;6.664;2022-10-16T05:09:50;13.00;99.90
9907;DHT22;4992;51.628;6.664;2022-10-16T05:12:16;13.00;99.90
9907;DHT22;4992;51.628;6.664;2022-10-16T05:14:41;13.00;99.90
9907;DHT22;4992;51.628;6.664;2022-10-16T05:17:07;13.00;99.90
9907;DHT22;4992;51.628;6.664;2022-10-16T05:19:32;13.00;99.90
9907;DHT22;4992;51.628;6.664;2022-10-16T05:21:58;12.90;99.90
9907;DHT22;4992;51.628;6.664;2022-10-16T05:24:24;12.90;99.90
9907;DHT22;4992;51.628;6.664;2022-10-16T05:26:50;12.90;99.90
9907;DHT22;4992;51.628;6.664;2022-10-16T05:29:15;12.90;99.90
9907;DHT22;4992;51.628;6.664;2022-10-16T05:31:41;12.90;99.90
9907;DHT22;4992;51.628;6.664;2022-10-16T05:34:06;12.90;99.90
9907;DHT22;4992;51.628;6.664;2022-10-16T05:36:32;12.90;99.90
9907;DHT22;4992;51.628;6.664;2022-10-16T05:38:57;12.90;99.90
9907;DHT22;4992;51.628;6.664;2022-10-16T05:41:23;12.90;99.90
9907;DHT22;4992;51.628;6.664;2022-10-16T05:43:51;12.90;99.90
9907;DHT22;4992;51.628;6.664;2022-10-16T05:46:16;12.80;99.90
9907;DHT22;4992;51.628;6.664;2022-10-16T05:48:43;12.80;99.90
9907;DHT22;4992;51.628;6.664;2022-10-16T05:51:10;12.80;99.90
9907;DHT22;4992;51.628;6.664;2022-10-16T05:53:37;12.70;99.90
9907;DHT22;4992;51.628;6.664;2022-10-16T05:56:04;12.70;99.90
9907;DHT22;4992;51.628;6.664;2022-10-16T05:58:33;12.70;99.90
9907;DHT22;4992;51.628;6.664;2022-10-16T06:01:03;12.60;99.90
9907;DHT22;4992;51.628;6.664;2022-10-16T06:03:28;12.60;99.90
9907;DHT22;4992;51.628;6.664;2022-10-16T06:05:54;12.60;99.90
9907;DHT22;4992;51.628;6.664;2022-10-16T06:08:21;12.60;99.90
9907;DHT22;4992;51.628;6.664;2022-10-16T06:10:47;12.60;99.90
9907;DHT22;4992;51.628;6.664;2022-10-16T06:13:14;12.50;99.90
9907;DHT22;4992;51.628;6.664;2022-10-16T06:15:41;12.50;99.90
9907;DHT22;4992;51.628;6.664;2022-10-16T06:18:08;12.60;99.90
9907;DHT22;4992;51.628;6.664;2022-10-16T06:20:35;12.60;99.90
9907;DHT22;4992;51.628;6.664;2022-10-16T06:23:00;12.60;99.90
9907;DHT22;4992;51.628;6.664;2022-10-16T06:25:26;12.60;99.90
9907;DHT22;4992;51.628;6.664;2022-10-16T06:27:51;12.60;99.90
9907;DHT22;4992;51.628;6.664;2022-10-16T06:30:17;12.60;99.90
9907;DHT22;4992;51.628;6.664;2022-10-16T06:32:42;12.60;99.90
9907;DHT22;4992;51.628;6.664;2022-10-16T06:35:08;12.60;99.90
9907;DHT22;4992;51.628;6.664;2022-10-16T06:37:33;12.60;99.90
9907;DHT22;4992;51.628;6.664;2022-10-16T06:39:59;12.60;99.90
9907;DHT22;4992;51.628;6.664;2022-10-16T06:42:25;12.60;99.90
9907;DHT22;4992;51.628;6.664;2022-10-16T06:44:51;12.60;99.90
9907;DHT22;4992;51.628;6.664;2022-10-16T06:47:16;12.60;99.90
9907;DHT22;4992;51.628;6.664;2022-10-16T06:49:42;12.60;99.90
9907;DHT22;4992;51.628;6.664;2022-10-16T06:52:07;12.60;99.90
9907;DHT22;4992;51.628;6.664;2022-10-16T06:54:33;12.70;99.90
9907;DHT22;4992;51.628;6.664;2022-10-16T06:56:58;12.60;99.90
9907;DHT22;4992;51.628;6.664;2022-10-16T06:59:25;12.60;99.90
9907;DHT22;4992;51.628;6.664;2022-10-16T07:01:50;12.60;99.90
9907;DHT22;4992;51.628;6.664;2022-10-16T07:04:16;12.60;99.90
9907;DHT22;4992;51.628;6.664;2022-10-16T07:06:41;12.60;99.90
9907;DHT22;4992;51.628;6.664;2022-10-16T07:09:09;12.70;99.90
9907;DHT22;4992;51.628;6.664;2022-10-16T07:11:36;12.70;99.90
9907;DHT22;4992;51.628;6.664;2022-10-16T07:14:02;12.70;99.90
9907;DHT22;4992;51.628;6.664;2022-10-16T07:16:29;12.60;99.90
9907;DHT22;4992;51.628;6.664;2022-10-16T07:18:57;12.60;99.90
9907;DHT22;4992;51.628;6.664;2022-10-16T07:21:26;12.70;99.90
9907;DHT22;4992;51.628;6.664;2022-10-16T07:23:59;12.70;99.90
9907;DHT22;4992;51.628;6.664;2022-10-16T07:26:28;12.80;99.90
9907;DHT22;4992;51.628;6.664;2022-10-16T07:28:55;12.80;99.90
9907;DHT22;4992;51.628;6.664;2022-10-16T07:31:21;12.80;99.90
9907;DHT22;4992;51.628;6.664;2022-10-16T07:33:48;12.90;99.90
9907;DHT22;4992;51.628;6.664;2022-10-16T07:36:15;12.90;99.90
9907;DHT22;4992;51.628;6.664;2022-10-16T07:38:41;13.00;99.90
9907;DHT22;4992;51.628;6.664;2022-10-16T07:41:10;13.10;99.90
9907;DHT22;4992;51.628;6.664;2022-10-16T07:43:36;13.10;99.90
9907;DHT22;4992;51.628;6.664;2022-10-16T07:46:02;13.20;99.90
9907;DHT22;4992;51.628;6.664;2022-10-16T07:48:31;13.30;99.90
9907;DHT22;4992;51.628;6.664;2022-10-16T07:51:03;13.40;99.90
9907;DHT22;4992;51.628;6.664;2022-10-16T07:53:29;13.50;99.90
9907;DHT22;4992;51.628;6.664;2022-10-16T07:55:59;13.50;99.90
9907;DHT22;4992;51.628;6.664;2022-10-16T07:58:26;13.60;99.90
9907;DHT22;4992;51.628;6.664;2022-10-16T08:00:53;13.70;99.90
9907;DHT22;4992;51.628;6.664;2022-10-16T08:03:18;13.80;99.90
9907;DHT22;4992;51.628;6.664;2022-10-16T08:05:44;13.80;99.90
9907;DHT22;4992;51.628;6.664;2022-10-16T08:08:17;13.90;99.90
9907;DHT22;4992;51.628;6.664;2022-10-16T08:10:43;14.00;99.90
9907;DHT22;4992;51.628;6.664;2022-10-16T08:13:09;14.00;99.90
9907;DHT22;4992;51.628;6.664;2022-10-16T08:15:34;14.10;99.90
9907;DHT22;4992;51.628;6.664;2022-10-16T08:18:02;14.10;99.90
9907;DHT22;4992;51.628;6.664;2022-10-16T08:20:29;14.20;99.90
9907;DHT22;4992;51.628;6.664;2022-10-16T08:22:55;14.20;99.90
9907;DHT22;4992;51.628;6.664;2022-10-16T08:25:22;14.30;99.90
9907;DHT22;4992;51.628;6.664;2022-10-16T08:27:48;14.40;99.90
9907;DHT22;4992;51.628;6.664;2022-10-16T08:30:14;14.50;99.90
9907;DHT22;4992;51.628;6.664;2022-10-16T08:32:40;14.50;99.90
9907;DHT22;4992;51.628;6.664;2022-10-16T08:35:08;14.60;99.90
9907;DHT22;4992;51.628;6.664;2022-10-16T08:37:34;14.70;99.90
9907;DHT22;4992;51.628;6.664;2022-10-16T08:40:00;14.70;99.90
9907;DHT22;4992;51.628;6.664;2022-10-16T08:42:53;14.70;99.90
9907;DHT22;4992;51.628;6.664;2022-10-16T08:51:08;14.90;99.90
9907;DHT22;4992;51.628;6.664;2022-10-16T08:53:46;15.00;99.90
9907;DHT22;4992;51.628;6.664;2022-10-16T08:56:14;15.00;99.90
9907;DHT22;4992;51.628;6.664;2022-10-16T08:58:39;15.10;99.90
9907;DHT22;4992;51.628;6.664;2022-10-16T09:01:12;15.20;99.90
9907;DHT22;4992;51.628;6.664;2022-10-16T09:17:03;15.50;99.90
9907;DHT22;4992;51.628;6.664;2022-10-16T09:19:46;15.60;99.90
9907;DHT22;4992;51.628;6.664;2022-10-16T09:22:16;15.70;99.90
9907;DHT22;4992;51.628;6.664;2022-10-16T09:24:42;15.80;99.90
9907;DHT22;4992;51.628;6.664;2022-10-16T09:27:12;15.90;99.90
9907;DHT22;4992;51.628;6.664;2022-10-16T09:29:39;15.90;99.90
9907;DHT22;4992;51.628;6.664;2022-10-16T09:32:13;15.90;99.90
9907;DHT22;4992;51.628;6.664;2022-10-16T09:34:45;16.00;99.90
9907;DHT22;4992;51.628;6.664;2022-10-16T09:37:15;16.10;99.90
9907;DHT22;4992;51.628;6.664;2022-10-16T09:39:48;16.10;99.90
9907;DHT22;4992;51.628;6.664;2022-10-16T09:42:19;16.10;99.90
9907;DHT22;4992;51.628;6.664;2022-10-16T09:44:49;16.20;99.90
9907;DHT22;4992;51.628;6.664;2022-10-16T09:47:21;16.20;99.90
9907;DHT22;4992;51.628;6.664;2022-10-16T09:52:19;16.20;99.90
9907;DHT22;4992;51.628;6.664;2022-10-16T09:55:14;16.20;99.90
9907;DHT22;4992;51.628;6.664;2022-10-16T09:57:50;16.20;99.90
9907;DHT22;4992;51.628;6.664;2022-10-16T10:00:17;16.30;99.90
9907;DHT22;4992;51.628;6.664;2022-10-16T10:02:43;16.30;99.90
9907;DHT22;4992;51.628;6.664;2022-10-16T10:05:27;16.30;99.90
9907;DHT22;4992;51.628;6.664;2022-10-16T10:08:03;16.30;99.90
9907;DHT22;4992;51.628;6.664;2022-10-16T10:10:40;16.40;99.90
9907;DHT22;4992;51.628;6.664;2022-10-16T10:13:36;16.40;99.90
9907;DHT22;4992;51.628;6.664;2022-10-16T10:16:01;16.50;99.90
9907;DHT22;4992;51.628;6.664;2022-10-16T10:18:27;16.50;99.90
9907;DHT22;4992;51.628;6.664;2022-10-16T10:21:00;16.50;99.90
9907;DHT22;4992;51.628;6.664;2022-10-16T10:23:28;16.60;99.90
9907;DHT22;4992;51.628;6.664;2022-10-16T10:32:01;16.80;99.90
9907;DHT22;4992;51.628;6.664;2022-10-16T10:37:28;17.00;99.90
9907;DHT22;4992;51.628;6.664;2022-10-16T10:40:13;17.10;99.90
9907;DHT22;4992;51.628;6.664;2022-10-16T10:45:43;17.20;99.90
9907;DHT22;4992;51.628;6.664;2022-10-16T10:51:12;17.40;99.90
9907;DHT22;4992;51.628;6.664;2022-10-16T11:01:54;17.70;99.90
9907;DHT22;4992;51.628;6.664;2022-10-16T11:07:04;17.70;99.90
9907;DHT22;4992;51.628;6.664;2022-10-16T11:09:52;17.70;99.90
9907;DHT22;4992;51.628;6.664;2022-10-16T11:12:22;17.60;99.90
9907;DHT22;4992;51.628;6.664;2022-10-16T11:15:04;17.60;99.90
9907;DHT22;4992;51.628;6.664;2022-10-16T11:17:33;17.60;99.90
9907;DHT22;4992;51.628;6.664;2022-10-16T11:20:16;17.70;99.90
9907;DHT22;4992;51.628;6.664;2022-10-16T11:36:03;19.00;99.90
9907;DHT22;4992;51.628;6.664;2022-10-16T11:43:56;18.90;99.90
9907;DHT22;4992;51.628;6.664;2022-10-16T11:46:24;19.00;99.90
9907;DHT22;4992;51.628;6.664;2022-10-16T11:49:11;18.90;99.90
9907;DHT22;4992;51.628;6.664;2022-10-16T11:52:01;18.90;99.90
9907;DHT22;4992;51.628;6.664;2022-10-16T11:54:52;18.80;99.90
9907;DHT22;4992;51.628;6.664;2022-10-16T11:57:26;19.00;99.90
9907;DHT22;4992;51.628;6.664;2022-10-16T11:59:57;19.40;99.90
9907;DHT22;4992;51.628;6.664;2022-10-16T12:05:25;20.30;99.90
9907;DHT22;4992;51.628;6.664;2022-10-16T12:08:09;20.50;99.90
9907;DHT22;4992;51.628;6.664;2022-10-16T12:10:37;20.80;99.90
9907;DHT22;4992;51.628;6.664;2022-10-16T12:15:39;21.30;99.90
9907;DHT22;4992;51.628;6.664;2022-10-16T12:18:21;21.50;99.90
9907;DHT22;4992;51.628;6.664;2022-10-16T12:20:57;21.90;99.90
9907;DHT22;4992;51.628;6.664;2022-10-16T12:23:26;22.30;99.90
9907;DHT22;4992;51.628;6.664;2022-10-16T12:25:56;22.70;99.90
9907;DHT22;4992;51.628;6.664;2022-10-16T12:28:27;23.10;99.90
9907;DHT22;4992;51.628;6.664;2022-10-16T12:31:01;23.40;99.90
9907;DHT22;4992;51.628;6.664;2022-10-16T12:33:30;23.00;99.90
9907;DHT22;4992;51.628;6.664;2022-10-16T12:35:58;22.90;99.90
9907;DHT22;4992;51.628;6.664;2022-10-16T12:38:28;23.10;99.90
9907;DHT22;4992;51.628;6.664;2022-10-16T12:41:04;23.20;99.90
9907;DHT22;4992;51.628;6.664;2022-10-16T12:43:39;23.60;99.90
9907;DHT22;4992;51.628;6.664;2022-10-16T12:46:41;24.00;99.90
9907;DHT22;4992;51.628;6.664;2022-10-16T12:49:14;24.50;99.90
9907;DHT22;4992;51.628;6.664;2022-10-16T12:51:44;24.90;99.90
9907;DHT22;4992;51.628;6.664;2022-10-16T12:54:17;25.40;99.90
9907;DHT22;4992;51.628;6.664;2022-10-16T12:59:53;26.90;99.90
9907;DHT22;4992;51.628;6.664;2022-10-16T13:05:24;28.30;99.90
9907;DHT22;4992;51.628;6.664;2022-10-16T13:21:08;30.00;99.90
9907;DHT22;4992;51.628;6.664;2022-10-16T13:24:07;29.50;99.90
9907;DHT22;4992;51.628;6.664;2022-10-16T13:29:31;28.90;99.90
9907;DHT22;4992;51.628;6.664;2022-10-16T13:31:58;29.40;99.90
9907;DHT22;4992;51.628;6.664;2022-10-16T13:34:25;29.60;99.90
9907;DHT22;4992;51.628;6.664;2022-10-16T13:36:52;29.30;99.90
9907;DHT22;4992;51.628;6.664;2022-10-16T13:39:26;28.70;99.90
9907;DHT22;4992;51.628;6.664;2022-10-16T13:42:12;28.10;99.90
9907;DHT22;4992;51.628;6.664;2022-10-16T13:44:51;26.90;99.90
9907;DHT22;4992;51.628;6.664;2022-10-16T13:47:19;26.30;99.90
9907;DHT22;4992;51.628;6.664;2022-10-16T13:49:45;26.10;99.90
9907;DHT22;4992;51.628;6.664;2022-10-16T13:52:21;25.30;99.90
9907;DHT22;4992;51.628;6.664;2022-10-16T13:54:47;24.60;99.90
9907;DHT22;4992;51.628;6.664;2022-10-16T13:57:17;24.10;99.90
9907;DHT22;4992;51.628;6.664;2022-10-16T13:59:43;23.70;99.90
9907;DHT22;4992;51.628;6.664;2022-10-16T14:02:18;23.80;99.90
9907;DHT22;4992;51.628;6.664;2022-10-16T14:04:45;24.20;99.90
9907;DHT22;4992;51.628;6.664;2022-10-16T14:07:14;24.40;99.90
9907;DHT22;4992;51.628;6.664;2022-10-16T14:09:42;24.60;99.90
9907;DHT22;4992;51.628;6.664;2022-10-16T14:12:11;25.10;99.90
9907;DHT22;4992;51.628;6.664;2022-10-16T14:14:42;24.50;99.90
9907;DHT22;4992;51.628;6.664;2022-10-16T14:17:35;23.90;99.90
9907;DHT22;4992;51.628;6.664;2022-10-16T14:20:05;23.20;99.90
9907;DHT22;4992;51.628;6.664;2022-10-16T14:22:41;22.70;99.90
9907;DHT22;4992;51.628;6.664;2022-10-16T14:27:45;21.60;99.90
9907;DHT22;4992;51.628;6.664;2022-10-16T14:30:18;21.20;99.90
9907;DHT22;4992;51.628;6.664;2022-10-16T14:33:02;20.80;99.90
9907;DHT22;4992;51.628;6.664;2022-10-16T14:35:34;20.70;99.90
9907;DHT22;4992;51.628;6.664;2022-10-16T14:38:02;20.60;99.90
9907;DHT22;4992;51.628;6.664;2022-10-16T14:40:34;20.50;99.90
9907;DHT22;4992;51.628;6.664;2022-10-16T14:43:04;20.40;99.90
9907;DHT22;4992;51.628;6.664;2022-10-16T14:45:32;20.30;99.90
9907;DHT22;4992;51.628;6.664;2022-10-16T14:48:04;20.20;99.90
9907;DHT22;4992;51.628;6.664;2022-10-16T14:50:31;20.20;99.90
9907;DHT22;4992;51.628;6.664;2022-10-16T14:52:58;20.10;99.90
9907;DHT22;4992;51.628;6.664;2022-10-16T14:55:24;20.00;99.90
9907;DHT22;4992;51.628;6.664;2022-10-16T14:57:50;19.90;99.90
9907;DHT22;4992;51.628;6.664;2022-10-16T15:00:22;19.70;99.90
9907;DHT22;4992;51.628;6.664;2022-10-16T15:02:49;19.50;99.90
9907;DHT22;4992;51.628;6.664;2022-10-16T15:05:21;19.40;99.90
9907;DHT22;4992;51.628;6.664;2022-10-16T15:07:48;19.30;99.90
9907;DHT22;4992;51.628;6.664;2022-10-16T15:10:15;19.20;99.90
9907;DHT22;4992;51.628;6.664;2022-10-16T15:12:41;19.20;99.90
9907;DHT22;4992;51.628;6.664;2022-10-16T15:15:37;19.10;99.90
9907;DHT22;4992;51.628;6.664;2022-10-16T15:18:04;19.00;99.90
9907;DHT22;4992;51.628;6.664;2022-10-16T15:20:33;18.90;99.90
9907;DHT22;4992;51.628;6.664;2022-10-16T15:23:04;18.80;99.90
9907;DHT22;4992;51.628;6.664;2022-10-16T15:28:15;18.70;99.90
9907;DHT22;4992;51.628;6.664;2022-10-16T15:30:41;18.60;99.90
9907;DHT22;4992;51.628;6.664;2022-10-16T15:33:19;18.60;99.90
9907;DHT22;4992;51.628;6.664;2022-10-16T15:35:50;18.50;99.90
9907;DHT22;4992;51.628;6.664;2022-10-16T15:38:17;18.40;99.90
9907;DHT22;4992;51.628;6.664;2022-10-16T15:40:43;18.30;99.90
9907;DHT22;4992;51.628;6.664;2022-10-16T15:43:10;18.20;99.90
9907;DHT22;4992;51.628;6.664;2022-10-16T15:45:36;18.20;99.90
9907;DHT22;4992;51.628;6.664;2022-10-16T15:48:02;18.10;99.90
9907;DHT22;4992;51.628;6.664;2022-10-16T15:50:29;18.00;99.90
9907;DHT22;4992;51.628;6.664;2022-10-16T15:52:55;17.90;99.90
9907;DHT22;4992;51.628;6.664;2022-10-16T15:55:20;17.80;99.90
9907;DHT22;4992;51.628;6.664;2022-10-16T15:57:46;17.80;99.90
9907;DHT22;4992;51.628;6.664;2022-10-16T16:00:15;17.70;99.90
9907;DHT22;4992;51.628;6.664;2022-10-16T16:02:42;17.60;99.90
9907;DHT22;4992;51.628;6.664;2022-10-16T16:05:09;17.50;99.90
9907;DHT22;4992;51.628;6.664;2022-10-16T16:07:37;17.40;99.90
9907;DHT22;4992;51.628;6.664;2022-10-16T16:10:04;17.30;99.90
9907;DHT22;4992;51.628;6.664;2022-10-16T16:12:30;17.20;99.90
9907;DHT22;4992;51.628;6.664;2022-10-16T16:14:56;17.10;99.90
9907;DHT22;4992;51.628;6.664;2022-10-16T16:17:21;17.00;99.90
9907;DHT22;4992;51.628;6.664;2022-10-16T16:19:47;16.90;99.90
9907;DHT22;4992;51.628;6.664;2022-10-16T16:22:13;16.80;99.90
9907;DHT22;4992;51.628;6.664;2022-10-16T16:24:38;16.80;99.90
9907;DHT22;4992;51.628;6.664;2022-10-16T16:27:04;16.70;99.90
9907;DHT22;4992;51.628;6.664;2022-10-16T16:29:29;16.60;99.90
9907;DHT22;4992;51.628;6.664;2022-10-16T16:31:55;16.50;99.90
9907;DHT22;4992;51.628;6.664;2022-10-16T16:34:24;16.50;99.90
9907;DHT22;4992;51.628;6.664;2022-10-16T16:36:50;16.50;99.90
9907;DHT22;4992;51.628;6.664;2022-10-16T16:39:16;16.40;99.90
9907;DHT22;4992;51.628;6.664;2022-10-16T16:41:41;16.30;99.90
9907;DHT22;4992;51.628;6.664;2022-10-16T16:44:09;16.30;99.90
9907;DHT22;4992;51.628;6.664;2022-10-16T16:46:35;16.20;99.90
9907;DHT22;4992;51.628;6.664;2022-10-16T16:49:02;16.20;99.90
9907;DHT22;4992;51.628;6.664;2022-10-16T16:51:28;16.10;99.90
9907;DHT22;4992;51.628;6.664;2022-10-16T16:53:55;16.00;99.90
9907;DHT22;4992;51.628;6.664;2022-10-16T16:56:21;16.00;99.90
9907;DHT22;4992;51.628;6.664;2022-10-16T16:58:49;16.00;99.90
9907;DHT22;4992;51.628;6.664;2022-10-16T17:01:15;16.00;99.90
9907;DHT22;4992;51.628;6.664;2022-10-16T17:03:43;15.90;99.90
9907;DHT22;4992;51.628;6.664;2022-10-16T17:06:13;15.80;99.90
9907;DHT22;4992;51.628;6.664;2022-10-16T17:08:39;15.70;99.90
9907;DHT22;4992;51.628;6.664;2022-10-16T17:11:10;15.70;99.90
9907;DHT22;4992;51.628;6.664;2022-10-16T17:13:36;15.70;99.90
9907;DHT22;4992;51.628;6.664;2022-10-16T17:16:03;15.60;99.90
9907;DHT22;4992;51.628;6.664;2022-10-16T17:18:30;15.60;99.90
9907;DHT22;4992;51.628;6.664;2022-10-16T17:20:59;15.60;99.90
9907;DHT22;4992;51.628;6.664;2022-10-16T17:23:25;15.50;99.90
9907;DHT22;4992;51.628;6.664;2022-10-16T17:25:51;15.50;99.90
9907;DHT22;4992;51.628;6.664;2022-10-16T17:28:16;15.40;99.90
9907;DHT22;4992;51.628;6.664;2022-10-16T17:30:43;15.40;99.90
9907;DHT22;4992;51.628;6.664;2022-10-16T17:33:10;15.40;99.90
9907;DHT22;4992;51.628;6.664;2022-10-16T17:35:37;15.30;99.90
9907;DHT22;4992;51.628;6.664;2022-10-16T17:38:03;15.30;99.90
9907;DHT22;4992;51.628;6.664;2022-10-16T17:40:29;15.30;99.90
9907;DHT22;4992;51.628;6.664;2022-10-16T17:42:54;15.20;99.90
9907;DHT22;4992;51.628;6.664;2022-10-16T17:45:20;15.20;99.90
9907;DHT22;4992;51.628;6.664;2022-10-16T17:47:46;15.20;99.90
9907;DHT22;4992;51.628;6.664;2022-10-16T17:50:11;15.20;99.90
9907;DHT22;4992;51.628;6.664;2022-10-16T17:52:37;15.10;99.90
9907;DHT22;4992;51.628;6.664;2022-10-16T17:55:03;15.10;99.90
9907;DHT22;4992;51.628;6.664;2022-10-16T17:57:28;15.10;99.90
9907;DHT22;4992;51.628;6.664;2022-10-16T17:59:54;15.10;99.90
9907;DHT22;4992;51.628;6.664;2022-10-16T18:02:20;15.10;99.90